Time;durP1;ratioP1;P1;durP2;ratioP2;P2;SDS_P1;SDS_P2;PMS_P1;PMS_P2;Temp;Humidity;BMP_temperature;BMP_pressure;BME280_temperature;BME280_humidity;BME280_pressure;Samples;Min_cycle;Max_cycle;Signal;HPM_P1;HPM_P2
2023/02/25 00:01:55;;;;;;;;;;;4.80;99.90;;;;;;8381528;28;19993;-71
2023/02/25 00:06:05;;;;;;;;;;;4.80;99.90;;;;;;8387622;28;19925;-71
2023/02/25 00:10:08;;;;;;;;;;;4.90;99.90;;;;;;8369241;28;20406;-72
2023/02/25 00:14:10;;;;;;;;;;;4.90;99.90;;;;;;8372038;28;20391;-72
2023/02/25 00:18:11;;;;;;;;;;;4.90;99.90;;;;;;8388327;28;19928;-72
2023/02/25 00:22:13;;;;;;;;;;;4.90;99.90;;;;;;8373981;28;20300;-71
2023/02/25 00:26:15;;;;;;;;;;;5.00;99.90;;;;;;8381740;28;19972;-71
2023/02/25 00:30:17;;;;;;;;;;;5.00;99.90;;;;;;8396774;28;19963;-72
2023/02/25 00:34:18;;;;;;;;;;;5.00;99.90;;;;;;8366634;28;20019;-72
2023/02/25 00:38:21;;;;;;;;;;;5.00;99.90;;;;;;8386877;28;20253;-72
2023/02/25 00:42:23;;;;;;;;;;;5.00;99.90;;;;;;8358739;28;19931;-72
2023/02/25 00:46:25;;;;;;;;;;;5.00;99.90;;;;;;8381900;28;19924;-72
2023/02/25 00:50:27;;;;;;;;;;;5.00;99.90;;;;;;8388368;28;20380;-71
2023/02/25 00:54:28;;;;;;;;;;;5.00;99.90;;;;;;8386853;28;19924;-71
2023/02/25 00:58:30;;;;;;;;;;;4.90;99.90;;;;;;8385801;28;20011;-72
2023/02/25 01:02:32;;;;;;;;;;;4.90;99.90;;;;;;8381000;28;20435;-72
2023/02/25 01:06:35;;;;;;;;;;;4.90;99.90;;;;;;8385502;28;19925;-72
2023/02/25 01:10:36;;;;;;;;;;;4.90;99.90;;;;;;8384166;28;20265;-71
2023/02/25 01:14:38;;;;;;;;;;;4.80;99.90;;;;;;8368636;28;19933;-72
2023/02/25 01:18:40;;;;;;;;;;;4.80;99.90;;;;;;8387745;28;19991;-72
2023/02/25 01:22:42;;;;;;;;;;;4.80;99.90;;;;;;8389184;28;19934;-72
2023/02/25 01:26:44;;;;;;;;;;;4.80;99.90;;;;;;8384721;28;20299;-72
2023/02/25 01:30:46;;;;;;;;;;;4.80;99.90;;;;;;8385439;28;20317;-72
2023/02/25 01:34:47;;;;;;;;;;;4.80;99.90;;;;;;8365479;28;20279;-72
2023/02/25 01:38:49;;;;;;;;;;;4.80;99.90;;;;;;8397403;28;19925;-72
2023/02/25 01:42:51;;;;;;;;;;;4.80;99.90;;;;;;8382817;28;19932;-72
2023/02/25 01:46:53;;;;;;;;;;;4.90;99.90;;;;;;8384616;28;19946;-72
2023/02/25 01:51:05;;;;;;;;;;;4.90;99.90;;;;;;8385500;28;19925;-72
2023/02/25 01:55:08;;;;;;;;;;;4.80;99.90;;;;;;8381084;28;19924;-71
2023/02/25 01:59:09;;;;;;;;;;;4.80;99.90;;;;;;8380319;28;19925;-71
2023/02/25 02:03:15;;;;;;;;;;;4.70;99.90;;;;;;8367063;28;19935;-71
2023/02/25 02:07:17;;;;;;;;;;;4.50;99.90;;;;;;8388247;28;20299;-71
2023/02/25 02:11:19;;;;;;;;;;;4.40;99.90;;;;;;8381936;28;19925;-71
2023/02/25 02:15:20;;;;;;;;;;;4.30;99.90;;;;;;8390760;28;19928;-72
2023/02/25 02:19:41;;;;;;;;;;;4.30;99.90;;;;;;8382123;28;19929;-72
2023/02/25 02:24:01;;;;;;;;;;;4.20;99.90;;;;;;8377294;28;21763;-72
2023/02/25 02:28:15;;;;;;;;;;;4.20;99.90;;;;;;8369877;28;19932;-72
2023/02/25 02:32:19;;;;;;;;;;;4.20;99.90;;;;;;8377260;28;19944;-71
2023/02/25 02:36:29;;;;;;;;;;;4.20;99.90;;;;;;8384371;28;20023;-71
2023/02/25 02:40:42;;;;;;;;;;;4.20;99.90;;;;;;8382231;28;19939;-71
2023/02/25 02:44:46;;;;;;;;;;;4.30;99.90;;;;;;8384291;28;20288;-72
2023/02/25 02:53:54;;;;;;;;;;;4.30;99.90;;;;;;8379513;28;19971;-72
2023/02/25 02:57:58;;;;;;;;;;;4.30;99.90;;;;;;8380691;28;19924;-71
2023/02/25 03:02:03;;;;;;;;;;;4.30;99.90;;;;;;8384654;28;19962;-72
2023/02/25 03:06:08;;;;;;;;;;;4.30;99.90;;;;;;8393302;28;20310;-72
2023/02/25 03:10:12;;;;;;;;;;;4.30;99.90;;;;;;8390294;28;19953;-71
2023/02/25 03:14:14;;;;;;;;;;;4.30;99.90;;;;;;8389103;28;19947;-71
2023/02/25 03:18:23;;;;;;;;;;;4.30;99.90;;;;;;8391064;28;19928;-72
2023/02/25 03:22:35;;;;;;;;;;;4.40;99.90;;;;;;8377949;28;19925;-71
2023/02/25 03:26:37;;;;;;;;;;;4.40;99.90;;;;;;8389833;28;19931;-71
2023/02/25 03:30:49;;;;;;;;;;;4.40;99.90;;;;;;8388870;28;19929;-71
2023/02/25 03:34:55;;;;;;;;;;;4.50;99.90;;;;;;8389585;28;19925;-71
2023/02/25 03:38:59;;;;;;;;;;;4.50;99.90;;;;;;8385962;28;20430;-71
2023/02/25 03:43:13;;;;;;;;;;;4.60;99.90;;;;;;8374288;28;19970;-71
2023/02/25 03:47:16;;;;;;;;;;;4.60;99.90;;;;;;8383720;28;19956;-71
2023/02/25 03:51:19;;;;;;;;;;;4.60;99.90;;;;;;8385359;28;20120;-71
2023/02/25 03:55:20;;;;;;;;;;;4.60;99.90;;;;;;8383378;28;19932;-72
2023/02/25 03:59:27;;;;;;;;;;;4.50;99.90;;;;;;8388816;28;19940;-71
2023/02/25 04:03:28;;;;;;;;;;;4.40;99.90;;;;;;8383933;28;20288;-71
2023/02/25 04:07:30;;;;;;;;;;;4.30;99.90;;;;;;8387466;28;20291;-71
2023/02/25 04:11:32;;;;;;;;;;;4.30;99.90;;;;;;8382784;28;19924;-72
2023/02/25 04:15:33;;;;;;;;;;;4.20;99.90;;;;;;8368832;28;19936;-72
2023/02/25 04:19:35;;;;;;;;;;;4.20;99.90;;;;;;8384682;28;19924;-72
2023/02/25 04:23:36;;;;;;;;;;;4.20;99.90;;;;;;8382327;28;20362;-71
2023/02/25 04:27:38;;;;;;;;;;;4.10;99.90;;;;;;8389369;28;19967;-71
2023/02/25 04:31:40;;;;;;;;;;;4.10;99.90;;;;;;8369935;28;19939;-71
2023/02/25 04:50:46;;;;;;;;;;;4.00;99.90;;;;;;8383381;28;20021;-72
2023/02/25 04:54:47;;;;;;;;;;;4.00;99.90;;;;;;8380443;28;19975;-72
2023/02/25 04:58:49;;;;;;;;;;;3.90;99.90;;;;;;8364846;28;19952;-71
2023/02/25 05:02:50;;;;;;;;;;;3.90;99.90;;;;;;8383180;28;20295;-71
2023/02/25 05:06:52;;;;;;;;;;;3.90;99.90;;;;;;8378034;28;19929;-71
2023/02/25 05:10:54;;;;;;;;;;;3.90;99.90;;;;;;8372971;28;20024;-71
2023/02/25 05:14:55;;;;;;;;;;;3.90;99.90;;;;;;8383144;28;19925;-72
2023/02/25 05:18:57;;;;;;;;;;;3.80;99.90;;;;;;8385930;28;19924;-72
2023/02/25 05:22:58;;;;;;;;;;;3.80;99.90;;;;;;8364262;28;19967;-71
2023/02/25 05:27:07;;;;;;;;;;;3.80;99.90;;;;;;8386978;28;19929;-71
2023/02/25 05:31:11;;;;;;;;;;;3.80;99.90;;;;;;8379222;28;20387;-72
2023/02/25 05:35:13;;;;;;;;;;;3.90;99.90;;;;;;8384016;28;19932;-71
2023/02/25 05:39:14;;;;;;;;;;;3.90;99.90;;;;;;8383365;28;19924;-71
2023/02/25 05:43:16;;;;;;;;;;;4.00;99.90;;;;;;8363090;28;19950;-71
2023/02/25 05:47:18;;;;;;;;;;;4.10;99.90;;;;;;8394209;28;19935;-72
2023/02/25 05:51:22;;;;;;;;;;;4.10;99.90;;;;;;8380349;28;19963;-71
2023/02/25 05:55:25;;;;;;;;;;;4.20;99.90;;;;;;8382032;28;19942;-71
2023/02/25 05:59:27;;;;;;;;;;;4.20;99.90;;;;;;8360068;28;19929;-72
2023/02/25 06:03:29;;;;;;;;;;;4.20;99.90;;;;;;8373435;28;19925;-71
2023/02/25 06:07:32;;;;;;;;;;;4.20;99.90;;;;;;8377428;28;20369;-71
2023/02/25 06:11:34;;;;;;;;;;;4.10;99.90;;;;;;8375026;28;19963;-71
2023/02/25 06:15:36;;;;;;;;;;;4.10;99.90;;;;;;8380231;28;20406;-71
2023/02/25 06:19:38;;;;;;;;;;;4.10;99.90;;;;;;8402405;28;19936;-71
2023/02/25 06:28:49;;;;;;;;;;;4.00;99.90;;;;;;8376288;28;19928;-72
2023/02/25 06:32:50;;;;;;;;;;;3.90;99.90;;;;;;8379578;28;19925;-71
2023/02/25 06:36:52;;;;;;;;;;;3.90;99.90;;;;;;8384355;28;19940;-71
2023/02/25 06:40:54;;;;;;;;;;;3.90;99.90;;;;;;8383966;28;19928;-71
2023/02/25 06:44:56;;;;;;;;;;;3.90;99.90;;;;;;8389590;28;19924;-71
2023/02/25 06:48:57;;;;;;;;;;;3.80;99.90;;;;;;8378033;28;19925;-71
2023/02/25 06:52:59;;;;;;;;;;;3.80;99.90;;;;;;8372324;28;19925;-71
2023/02/25 06:57:00;;;;;;;;;;;3.80;99.90;;;;;;8385258;28;20319;-72
2023/02/25 07:01:10;;;;;;;;;;;3.80;99.90;;;;;;8398608;28;19971;-71
2023/02/25 07:05:11;;;;;;;;;;;3.90;99.90;;;;;;8390961;28;19929;-71
2023/02/25 07:09:13;;;;;;;;;;;3.90;99.90;;;;;;8392530;28;19967;-71
2023/02/25 07:13:15;;;;;;;;;;;4.00;99.90;;;;;;8388630;28;20015;-71
2023/02/25 07:17:16;;;;;;;;;;;4.10;99.90;;;;;;8392653;28;20018;-72
2023/02/25 07:21:18;;;;;;;;;;;4.20;99.90;;;;;;8383983;28;19928;-71
2023/02/25 07:25:20;;;;;;;;;;;4.20;99.90;;;;;;8384233;28;19935;-71
2023/02/25 07:29:22;;;;;;;;;;;4.30;99.90;;;;;;8369989;28;19924;-71
2023/02/25 07:33:23;;;;;;;;;;;4.40;99.90;;;;;;8367878;28;19936;-71
2023/02/25 07:37:25;;;;;;;;;;;4.50;99.90;;;;;;8395495;28;19929;-71
2023/02/25 07:41:27;;;;;;;;;;;4.50;99.90;;;;;;8390359;28;20020;-72
2023/02/25 07:45:29;;;;;;;;;;;4.50;99.90;;;;;;8391279;28;19924;-71
2023/02/25 07:49:31;;;;;;;;;;;4.50;99.90;;;;;;8370434;28;19932;-72
2023/02/25 07:53:32;;;;;;;;;;;4.60;99.90;;;;;;8372857;28;19935;-71
2023/02/25 07:57:34;;;;;;;;;;;4.60;99.90;;;;;;8380810;28;20406;-71
2023/02/25 08:01:38;;;;;;;;;;;4.70;99.90;;;;;;8387272;28;20023;-71
2023/02/25 08:05:40;;;;;;;;;;;4.70;99.90;;;;;;8381764;28;19926;-71
2023/02/25 08:09:42;;;;;;;;;;;4.80;99.90;;;;;;8368691;28;19924;-71
2023/02/25 08:13:43;;;;;;;;;;;4.90;99.90;;;;;;8369813;28;19931;-71
2023/02/25 08:17:48;;;;;;;;;;;5.00;99.90;;;;;;8382463;28;19972;-71
2023/02/25 08:21:49;;;;;;;;;;;5.00;99.90;;;;;;8379920;28;19930;-71
2023/02/25 08:25:53;;;;;;;;;;;5.00;99.90;;;;;;8387063;28;20027;-71
2023/02/25 08:29:56;;;;;;;;;;;5.00;99.90;;;;;;8372549;28;20051;-71
2023/02/25 08:33:58;;;;;;;;;;;5.00;99.90;;;;;;8391479;28;19974;-71
2023/02/25 08:38:00;;;;;;;;;;;5.10;99.90;;;;;;8371465;28;19935;-71
2023/02/25 08:42:01;;;;;;;;;;;5.20;99.90;;;;;;8363346;28;20032;-71
2023/02/25 08:46:05;;;;;;;;;;;5.30;99.90;;;;;;8391575;28;20431;-72
2023/02/25 08:50:08;;;;;;;;;;;5.30;99.90;;;;;;8393760;28;20406;-71
2023/02/25 08:54:10;;;;;;;;;;;5.40;99.90;;;;;;8387128;28;19947;-71
2023/02/25 08:58:12;;;;;;;;;;;5.50;99.90;;;;;;8369186;28;20036;-71
2023/02/25 09:02:14;;;;;;;;;;;5.50;99.90;;;;;;8382833;28;19971;-72
2023/02/25 09:06:16;;;;;;;;;;;5.60;99.90;;;;;;8372277;28;20718;-72
2023/02/25 09:10:18;;;;;;;;;;;5.70;99.90;;;;;;8379915;28;20434;-71
2023/02/25 09:14:20;;;;;;;;;;;5.70;99.90;;;;;;8382309;28;20668;-72
2023/02/25 09:18:21;;;;;;;;;;;5.80;99.90;;;;;;8390409;28;19924;-72
2023/02/25 09:22:23;;;;;;;;;;;5.80;99.90;;;;;;8382969;28;19972;-72
2023/02/25 09:26:24;;;;;;;;;;;5.90;99.90;;;;;;8380413;28;19925;-72
2023/02/25 09:30:26;;;;;;;;;;;5.90;99.90;;;;;;8384039;28;20031;-72
2023/02/25 09:34:29;;;;;;;;;;;5.90;99.90;;;;;;8387463;28;19939;-71
2023/02/25 09:38:30;;;;;;;;;;;6.00;99.90;;;;;;8385645;28;19928;-71
2023/02/25 09:42:40;;;;;;;;;;;6.00;99.90;;;;;;8379600;28;19998;-72
2023/02/25 09:46:48;;;;;;;;;;;6.00;99.90;;;;;;8383590;28;19932;-71
2023/02/25 09:50:52;;;;;;;;;;;6.00;99.90;;;;;;8384911;28;19982;-72
2023/02/25 09:55:16;;;;;;;;;;;6.10;99.90;;;;;;8379068;28;20387;-71
2023/02/25 09:59:20;;;;;;;;;;;6.20;99.90;;;;;;8389872;28;20394;-71
2023/02/25 10:18:42;;;;;;;;;;;5.70;99.90;;;;;;8398935;28;19923;-71
2023/02/25 10:22:47;;;;;;;;;;;5.60;99.90;;;;;;8374036;28;19931;-72
2023/02/25 10:26:50;;;;;;;;;;;5.80;99.90;;;;;;8396237;28;20281;-72
2023/02/25 10:30:58;;;;;;;;;;;6.10;99.90;;;;;;8390103;28;20237;-71
2023/02/25 10:35:04;;;;;;;;;;;6.40;99.90;;;;;;8390261;28;20007;-71
2023/02/25 10:39:08;;;;;;;;;;;7.00;99.90;;;;;;8387667;28;19976;-72
2023/02/25 10:43:21;;;;;;;;;;;7.90;99.90;;;;;;8388293;28;19976;-71
2023/02/25 10:47:27;;;;;;;;;;;8.60;99.90;;;;;;8398199;28;19928;-71
2023/02/25 10:51:29;;;;;;;;;;;9.50;99.90;;;;;;8389828;28;19924;-71
2023/02/25 10:55:40;;;;;;;;;;;10.10;99.90;;;;;;8388590;28;19932;-71
2023/02/25 10:59:43;;;;;;;;;;;10.40;99.90;;;;;;8402535;28;19929;-71
2023/02/25 11:03:51;;;;;;;;;;;10.60;99.90;;;;;;8389576;28;19925;-72
2023/02/25 11:07:53;;;;;;;;;;;10.90;99.90;;;;;;8399084;28;19931;-72
2023/02/25 11:12:28;;;;;;;;;;;10.70;99.90;;;;;;8388411;28;19929;-72
2023/02/25 11:16:31;;;;;;;;;;;10.20;99.90;;;;;;8357477;28;19942;-72
2023/02/25 11:20:33;;;;;;;;;;;9.50;99.90;;;;;;8390621;28;19924;-71
2023/02/25 11:24:36;;;;;;;;;;;8.80;99.90;;;;;;8370957;28;19934;-71
2023/02/25 11:28:39;;;;;;;;;;;8.30;99.90;;;;;;8393410;28;20019;-71
2023/02/25 11:32:42;;;;;;;;;;;8.70;99.90;;;;;;8395623;28;20004;-71
2023/02/25 11:36:44;;;;;;;;;;;9.90;99.90;;;;;;8386766;28;19959;-71
2023/02/25 11:40:47;;;;;;;;;;;11.10;99.90;;;;;;8372034;28;20372;-72
2023/02/25 11:44:48;;;;;;;;;;;12.20;99.90;;;;;;8367813;28;19925;-72
2023/02/25 11:48:58;;;;;;;;;;;12.90;99.90;;;;;;8359690;28;19995;-72
2023/02/25 11:53:12;;;;;;;;;;;13.60;99.90;;;;;;8363287;28;19932;-72
2023/02/25 11:57:24;;;;;;;;;;;14.20;99.90;;;;;;8364887;28;19928;-72
2023/02/25 12:01:37;;;;;;;;;;;14.80;99.90;;;;;;8362933;28;20376;-72
2023/02/25 12:05:57;;;;;;;;;;;15.10;99.90;;;;;;8370834;28;19967;-72
2023/02/25 12:10:01;;;;;;;;;;;14.90;99.90;;;;;;8369303;28;19936;-72
2023/02/25 12:14:03;;;;;;;;;;;13.80;99.90;;;;;;8381910;28;19932;-72
2023/02/25 12:18:05;;;;;;;;;;;12.60;99.90;;;;;;8369149;28;19975;-72
2023/02/25 12:22:25;;;;;;;;;;;11.60;99.90;;;;;;8365819;28;19936;-72
2023/02/25 12:26:46;;;;;;;;;;;10.90;99.90;;;;;;8378972;28;20299;-72
2023/02/25 12:31:00;;;;;;;;;;;10.70;99.90;;;;;;8363459;28;19928;-71
2023/02/25 12:35:05;;;;;;;;;;;11.00;99.90;;;;;;8364675;28;19970;-71
2023/02/25 12:39:07;;;;;;;;;;;10.80;99.90;;;;;;8363389;28;19925;-72
2023/02/25 12:43:20;;;;;;;;;;;11.10;99.90;;;;;;8366558;28;19956;-72
2023/02/25 12:47:40;;;;;;;;;;;12.10;99.90;;;;;;8368040;28;20423;-72
2023/02/25 12:51:42;;;;;;;;;;;12.50;99.90;;;;;;8368410;28;19947;-72
2023/02/25 13:00:47;;;;;;;;;;;11.70;99.90;;;;;;8360131;28;19919;-71
2023/02/25 13:04:59;;;;;;;;;;;12.40;99.90;;;;;;8344027;28;19929;-71
2023/02/25 13:09:19;;;;;;;;;;;13.20;99.90;;;;;;8364225;28;19936;-71
2023/02/25 13:13:39;;;;;;;;;;;13.20;99.90;;;;;;8361984;28;19928;-71
2023/02/25 13:18:00;;;;;;;;;;;12.60;99.90;;;;;;8362559;28;19925;-71
2023/02/25 13:22:11;;;;;;;;;;;11.60;99.90;;;;;;8362821;28;20376;-72
2023/02/25 13:26:22;;;;;;;;;;;11.10;99.90;;;;;;8364459;28;19933;-72
2023/02/25 13:30:30;;;;;;;;;;;11.00;99.90;;;;;;8365017;28;19931;-72
2023/02/25 13:34:45;;;;;;;;;;;10.90;99.90;;;;;;8361156;28;20323;-72
2023/02/25 13:38:56;;;;;;;;;;;11.00;99.90;;;;;;8357365;28;19929;-71
2023/02/25 13:43:03;;;;;;;;;;;10.80;99.90;;;;;;8365283;28;19964;-72
2023/02/25 13:57:30;;;;;;;;;;;10.90;99.90;;;;;;8360096;28;19927;-72
2023/02/25 14:01:31;;;;;;;;;;;11.00;99.90;;;;;;8355663;28;19947;-72
2023/02/25 14:05:52;;;;;;;;;;;11.10;99.90;;;;;;8361086;28;19936;-72
2023/02/25 14:09:53;;;;;;;;;;;11.20;99.90;;;;;;8363718;28;19928;-72
2023/02/25 14:14:34;;;;;;;;;;;11.30;99.90;;;;;;8366216;28;19935;-71
2023/02/25 14:19:02;;;;;;;;;;;11.10;99.90;;;;;;8278218;28;19975;-72
2023/02/25 14:23:11;;;;;;;;;;;11.20;99.90;;;;;;8305979;28;19967;-72
2023/02/25 14:27:51;;;;;;;;;;;11.10;99.90;;;;;;8364514;28;20027;-71
2023/02/25 14:32:11;;;;;;;;;;;11.10;99.90;;;;;;8230202;28;19933;-72
2023/02/25 14:36:31;;;;;;;;;;;11.10;99.90;;;;;;8304411;28;19925;-71
2023/02/25 14:45:36;;;;;;;;;;;11.50;99.90;;;;;;8370763;28;19939;-72
2023/02/25 14:49:59;;;;;;;;;;;11.80;99.90;;;;;;8366617;28;19936;-72
2023/02/25 14:54:03;;;;;;;;;;;12.20;99.90;;;;;;8370945;28;20324;-72
2023/02/25 14:58:05;;;;;;;;;;;12.50;99.90;;;;;;8382772;28;19931;-72
2023/02/25 15:02:19;;;;;;;;;;;12.30;99.90;;;;;;8367024;28;24384;-72
2023/02/25 15:06:26;;;;;;;;;;;12.70;99.90;;;;;;8365831;28;19925;-72
2023/02/25 15:10:43;;;;;;;;;;;13.70;99.90;;;;;;8371177;28;19932;-72
2023/02/25 15:14:50;;;;;;;;;;;14.40;99.90;;;;;;8368426;28;20178;-72
2023/02/25 15:18:52;;;;;;;;;;;14.70;99.90;;;;;;8373291;28;19932;-72
2023/02/25 15:23:06;;;;;;;;;;;14.30;99.90;;;;;;8376038;28;20384;-72
2023/02/25 15:27:26;;;;;;;;;;;13.70;99.90;;;;;;8374385;28;19925;-72
2023/02/25 15:31:29;;;;;;;;;;;12.90;99.90;;;;;;8360138;28;20382;-72
2023/02/25 15:35:34;;;;;;;;;;;12.90;99.90;;;;;;8368920;28;20022;-72
2023/02/25 15:39:39;;;;;;;;;;;13.00;99.90;;;;;;8365783;28;20333;-72
2023/02/25 15:43:41;;;;;;;;;;;12.80;99.90;;;;;;8365460;28;19932;-72
2023/02/25 15:47:46;;;;;;;;;;;12.90;99.90;;;;;;8368183;28;19928;-72
2023/02/25 15:51:50;;;;;;;;;;;12.90;99.90;;;;;;8367696;28;20079;-72
2023/02/25 15:56:04;;;;;;;;;;;12.90;99.90;;;;;;8370063;28;19929;-72
2023/02/25 16:15:33;;;;;;;;;;;11.80;99.90;;;;;;8363184;28;20449;-72
2023/02/25 16:19:36;;;;;;;;;;;11.40;99.90;;;;;;8365736;28;20403;-72
2023/02/25 16:23:38;;;;;;;;;;;10.90;99.90;;;;;;8380503;28;19931;-72
2023/02/25 16:27:43;;;;;;;;;;;10.50;99.90;;;;;;8362633;28;19925;-72
2023/02/25 16:31:48;;;;;;;;;;;10.20;99.90;;;;;;8365039;28;19971;-71
2023/02/25 16:35:55;;;;;;;;;;;10.00;99.90;;;;;;8365055;28;20296;-72
2023/02/25 16:40:34;;;;;;;;;;;9.90;99.90;;;;;;8359819;28;19978;-72
2023/02/25 16:44:37;;;;;;;;;;;9.60;99.90;;;;;;8357598;28;19935;-72
2023/02/25 16:48:49;;;;;;;;;;;9.30;99.90;;;;;;8364272;28;19967;-72
2023/02/25 16:52:50;;;;;;;;;;;9.10;99.90;;;;;;8364740;28;19929;-72
2023/02/25 16:56:54;;;;;;;;;;;8.90;99.90;;;;;;8360823;28;20288;-71
2023/02/25 17:00:57;;;;;;;;;;;8.70;99.90;;;;;;8371078;28;19928;-71
2023/02/25 17:04:59;;;;;;;;;;;8.50;99.90;;;;;;8362420;28;19979;-71
2023/02/25 17:09:00;;;;;;;;;;;8.30;99.90;;;;;;8363365;28;19924;-71
2023/02/25 17:13:02;;;;;;;;;;;8.10;99.90;;;;;;8359668;28;20405;-71
2023/02/25 17:17:04;;;;;;;;;;;7.90;99.90;;;;;;8357426;28;20576;-72
2023/02/25 17:21:32;;;;;;;;;;;7.60;99.90;;;;;;8363025;28;19932;-71
2023/02/25 17:25:39;;;;;;;;;;;7.50;99.90;;;;;;8358175;28;19924;-71
2023/02/25 17:29:42;;;;;;;;;;;7.30;99.90;;;;;;8364114;28;20391;-71
2023/02/25 17:33:51;;;;;;;;;;;7.20;99.90;;;;;;8352052;28;19930;-71
2023/02/25 17:37:53;;;;;;;;;;;7.10;99.90;;;;;;8355968;28;20369;-71
2023/02/25 17:41:56;;;;;;;;;;;7.00;99.90;;;;;;8364455;28;19928;-71
2023/02/25 17:46:00;;;;;;;;;;;6.90;99.90;;;;;;8359140;28;19983;-71
2023/02/25 17:50:22;;;;;;;;;;;6.80;99.90;;;;;;8364149;28;19925;-71
2023/02/25 17:54:24;;;;;;;;;;;6.80;99.90;;;;;;8339558;28;19928;-71
2023/02/25 17:58:26;;;;;;;;;;;6.70;99.90;;;;;;8366575;28;20277;-71
2023/02/25 18:18:12;;;;;;;;;;;6.40;99.90;;;;;;8364698;28;19947;-71
2023/02/25 18:22:30;;;;;;;;;;;6.40;99.90;;;;;;8368349;28;19964;-71
2023/02/25 18:26:32;;;;;;;;;;;6.30;99.90;;;;;;8350272;28;20023;-72
2023/02/25 18:30:34;;;;;;;;;;;6.30;99.90;;;;;;8369311;28;19929;-71
2023/02/25 18:34:35;;;;;;;;;;;6.30;99.90;;;;;;8364033;28;20426;-72
2023/02/25 18:38:37;;;;;;;;;;;6.20;99.90;;;;;;8368337;28;20376;-72
2023/02/25 18:42:39;;;;;;;;;;;6.10;99.90;;;;;;8368373;28;20388;-72
2023/02/25 18:46:40;;;;;;;;;;;6.10;99.90;;;;;;8368105;28;19925;-72
2023/02/25 18:50:45;;;;;;;;;;;6.00;99.90;;;;;;8376892;28;19925;-72
2023/02/25 18:54:47;;;;;;;;;;;6.00;99.90;;;;;;8366737;28;19940;-72
2023/02/25 18:58:48;;;;;;;;;;;5.90;99.90;;;;;;8372635;28;20288;-72
2023/02/25 19:02:55;;;;;;;;;;;5.90;99.90;;;;;;8384220;28;19955;-71
2023/02/25 19:06:57;;;;;;;;;;;5.80;99.90;;;;;;8365000;28;19950;-71
2023/02/25 19:10:58;;;;;;;;;;;5.70;99.90;;;;;;8368093;28;19928;-71
2023/02/25 19:15:01;;;;;;;;;;;5.60;99.90;;;;;;8363311;28;19925;-71
2023/02/25 19:19:03;;;;;;;;;;;5.40;99.90;;;;;;8365110;28;19969;-71
2023/02/25 19:23:04;;;;;;;;;;;5.20;99.90;;;;;;8371348;28;20557;-71
2023/02/25 19:27:07;;;;;;;;;;;5.00;99.90;;;;;;8368837;28;19933;-72
2023/02/25 19:31:10;;;;;;;;;;;4.90;99.90;;;;;;8365058;28;19932;-71
2023/02/25 19:35:12;;;;;;;;;;;4.70;99.90;;;;;;8363892;28;20066;-71
2023/02/25 19:39:14;;;;;;;;;;;4.60;99.90;;;;;;8355358;28;19924;-71
2023/02/25 19:43:16;;;;;;;;;;;4.50;99.90;;;;;;8365843;28;19971;-72
2023/02/25 19:47:18;;;;;;;;;;;4.40;99.90;;;;;;8367663;28;19928;-72
2023/02/25 19:51:19;;;;;;;;;;;4.30;99.90;;;;;;8381970;28;19964;-71
2023/02/25 19:55:21;;;;;;;;;;;4.20;99.90;;;;;;8381446;28;20450;-71
2023/02/25 19:59:23;;;;;;;;;;;4.10;99.90;;;;;;8369954;28;19929;-72
2023/02/25 20:03:25;;;;;;;;;;;4.00;99.90;;;;;;8365657;28;20378;-71
2023/02/25 20:07:26;;;;;;;;;;;3.90;99.90;;;;;;8361110;28;19929;-71
2023/02/25 20:11:28;;;;;;;;;;;3.90;99.90;;;;;;8366109;28;20449;-71
2023/02/25 20:15:30;;;;;;;;;;;3.90;99.90;;;;;;8366733;28;19925;-72
2023/02/25 20:19:32;;;;;;;;;;;3.90;99.90;;;;;;8366450;28;20062;-72
2023/02/25 20:23:33;;;;;;;;;;;3.80;99.90;;;;;;8368361;28;19928;-71
2023/02/25 20:27:37;;;;;;;;;;;3.70;99.90;;;;;;8344659;28;20339;-71
2023/02/25 20:31:39;;;;;;;;;;;3.70;99.90;;;;;;8363651;28;19968;-71
2023/02/25 20:35:41;;;;;;;;;;;3.60;99.90;;;;;;8364563;28;19973;-71
2023/02/25 20:39:55;;;;;;;;;;;3.50;99.90;;;;;;8363384;28;19947;-72
2023/02/25 20:43:57;;;;;;;;;;;3.40;99.90;;;;;;8370195;28;19932;-72
2023/02/25 20:47:59;;;;;;;;;;;3.30;99.90;;;;;;8368996;28;19972;-72
2023/02/25 20:52:00;;;;;;;;;;;3.20;99.90;;;;;;8362250;28;19964;-72
2023/02/25 20:56:04;;;;;;;;;;;3.20;99.90;;;;;;8342342;28;19931;-72
2023/02/25 21:00:07;;;;;;;;;;;3.10;99.90;;;;;;8369375;28;19964;-72
2023/02/25 21:04:09;;;;;;;;;;;3.00;99.90;;;;;;8362871;28;19928;-71
2023/02/25 21:08:11;;;;;;;;;;;2.90;99.90;;;;;;8367459;28;19925;-71
2023/02/25 21:12:13;;;;;;;;;;;2.90;99.90;;;;;;8360366;28;19940;-71
2023/02/25 21:16:15;;;;;;;;;;;2.80;99.90;;;;;;8369892;28;20430;-72
2023/02/25 21:20:17;;;;;;;;;;;2.70;99.90;;;;;;8359964;28;20403;-72
2023/02/25 21:24:19;;;;;;;;;;;2.70;99.90;;;;;;8363269;28;20426;-72
2023/02/25 21:28:21;;;;;;;;;;;2.60;99.90;;;;;;8360937;28;19995;-72
2023/02/25 21:32:23;;;;;;;;;;;2.50;99.90;;;;;;8369078;28;19971;-72
2023/02/25 21:36:25;;;;;;;;;;;2.40;99.90;;;;;;8362106;28;20174;-71
2023/02/25 21:40:27;;;;;;;;;;;2.40;99.90;;;;;;8361472;28;19958;-72
2023/02/25 21:44:28;;;;;;;;;;;2.30;99.90;;;;;;8356636;28;19924;-71
2023/02/25 21:48:30;;;;;;;;;;;2.30;99.90;;;;;;8375578;28;20387;-71
2023/02/25 21:52:32;;;;;;;;;;;2.30;99.90;;;;;;8364412;28;19939;-71
2023/02/25 21:56:34;;;;;;;;;;;2.30;99.90;;;;;;8348885;28;19933;-71
2023/02/25 22:00:36;;;;;;;;;;;2.20;99.90;;;;;;8368964;28;19931;-72
2023/02/25 22:04:37;;;;;;;;;;;2.20;99.90;;;;;;8386702;28;20299;-71
2023/02/25 22:08:40;;;;;;;;;;;2.10;99.90;;;;;;8389510;28;19967;-71
2023/02/25 22:12:41;;;;;;;;;;;2.00;99.90;;;;;;8385363;28;19939;-72
2023/02/25 22:16:43;;;;;;;;;;;2.00;99.90;;;;;;8382984;28;19967;-71
2023/02/25 22:20:44;;;;;;;;;;;1.90;99.90;;;;;;8372169;28;19931;-71
2023/02/25 22:24:47;;;;;;;;;;;1.90;99.90;;;;;;8382383;28;19936;-71
2023/02/25 22:28:51;;;;;;;;;;;1.90;99.90;;;;;;8386767;28;19959;-71
2023/02/25 22:32:53;;;;;;;;;;;1.80;99.90;;;;;;8390568;28;19929;-71
2023/02/25 22:36:54;;;;;;;;;;;1.80;99.90;;;;;;8389458;28;19976;-71
2023/02/25 22:40:57;;;;;;;;;;;1.80;99.90;;;;;;8362943;28;19931;-71
2023/02/25 22:44:58;;;;;;;;;;;1.80;99.90;;;;;;8380377;28;20298;-71
2023/02/25 22:49:00;;;;;;;;;;;1.70;99.90;;;;;;8386617;28;20015;-72
2023/02/25 22:53:02;;;;;;;;;;;1.60;99.90;;;;;;8382883;28;20019;-72
2023/02/25 23:02:07;;;;;;;;;;;1.60;99.90;;;;;;8385571;28;19983;-71
2023/02/25 23:06:09;;;;;;;;;;;1.60;99.90;;;;;;8393398;28;19924;-71
2023/02/25 23:10:10;;;;;;;;;;;1.60;99.90;;;;;;8378814;28;19925;-72
2023/02/25 23:24:19;;;;;;;;;;;1.50;99.90;;;;;;8389621;28;19927;-72
2023/02/25 23:28:20;;;;;;;;;;;1.50;99.90;;;;;;8389503;28;20328;-71
2023/02/25 23:47:09;;;;;;;;;;;1.70;99.90;;;;;;8389478;28;19932;-71
2023/02/25 23:51:11;;;;;;;;;;;1.80;99.90;;;;;;8377466;28;20269;-72
2023/02/25 23:55:14;;;;;;;;;;;1.80;99.90;;;;;;8388606;28;19925;-72
2023/02/25 23:59:16;;;;;;;;;;;1.80;99.90;;;;;;8393839;28;20418;-72
